createdAt,value
2019-03-30T00:02:11.231Z,11.23
2019-03-30T00:04:39.715Z,10.37
2019-03-30T00:07:08.080Z,10.20
2019-03-30T00:09:36.668Z,10.67
2019-03-30T00:12:05.123Z,11.30
2019-03-30T00:14:33.726Z,11.13
2019-03-30T00:17:03.996Z,11.00
2019-03-30T00:19:35.147Z,10.10
2019-03-30T00:22:02.884Z,14.07
2019-03-30T00:24:31.311Z,9.60
2019-03-30T00:27:01.014Z,10.93
2019-03-30T00:29:29.461Z,11.50
2019-03-30T00:31:57.979Z,11.83
2019-03-30T00:34:26.515Z,9.83
2019-03-30T00:36:54.997Z,12.00
2019-03-30T00:39:23.459Z,9.60
2019-03-30T00:41:53.336Z,11.73
2019-03-30T00:44:24.352Z,10.93
2019-03-30T00:46:52.860Z,9.57
2019-03-30T00:49:21.390Z,11.90
2019-03-30T00:51:52.104Z,10.90
2019-03-30T00:54:20.556Z,11.53
2019-03-30T00:56:52.008Z,14.80
2019-03-30T00:59:20.492Z,11.47
2019-03-30T01:01:49.150Z,11.60
2019-03-30T01:04:17.554Z,10.43
2019-03-30T01:06:46.039Z,11.70
2019-03-30T01:09:14.529Z,12.90
2019-03-30T01:11:43.015Z,12.50
2019-03-30T01:14:11.495Z,11.43
2019-03-30T01:16:40.005Z,13.10
2019-03-30T01:19:08.458Z,14.77
2019-03-30T01:21:37.000Z,11.20
2019-03-30T01:24:05.624Z,12.10
2019-03-30T01:26:34.091Z,12.63
2019-03-30T01:29:02.538Z,12.57
2019-03-30T01:31:31.060Z,13.07
2019-03-30T01:33:59.565Z,12.77
2019-03-30T01:36:28.049Z,12.87
2019-03-30T01:38:56.492Z,11.37
2019-03-30T01:41:25.275Z,12.83
2019-03-30T01:43:53.961Z,13.33
2019-03-30T01:46:22.647Z,14.93
2019-03-30T01:48:51.141Z,15.30
2019-03-30T01:51:19.740Z,12.90
2019-03-30T01:53:48.203Z,13.47
2019-03-30T01:56:16.755Z,11.77
2019-03-30T01:58:48.339Z,14.40
2019-03-30T02:01:18.001Z,12.47
2019-03-30T02:03:47.961Z,11.67
2019-03-30T02:06:16.444Z,12.03
2019-03-30T02:08:45.031Z,14.83
2019-03-30T02:11:13.546Z,11.03
2019-03-30T02:13:42.001Z,14.20
2019-03-30T02:16:10.443Z,12.57
2019-03-30T02:18:39.038Z,12.13
2019-03-30T02:21:07.644Z,12.60
2019-03-30T02:23:36.316Z,11.70
2019-03-30T02:26:06.233Z,12.10
2019-03-30T02:28:34.860Z,12.90
2019-03-30T02:31:04.908Z,12.00
2019-03-30T02:33:33.359Z,12.40
2019-03-30T02:36:01.840Z,10.50
2019-03-30T02:38:30.340Z,11.60
2019-03-30T02:40:58.851Z,11.50
2019-03-30T02:43:27.509Z,10.43
2019-03-30T02:45:58.213Z,9.83
2019-03-30T02:48:27.034Z,11.50
2019-03-30T02:50:58.502Z,12.37
2019-03-30T02:53:28.298Z,10.97
2019-03-30T02:55:56.853Z,9.40
2019-03-30T02:58:25.387Z,10.30
2019-03-30T03:00:53.828Z,9.67
2019-03-30T03:03:22.579Z,10.07
2019-03-30T03:05:51.046Z,10.77
2019-03-30T03:08:19.536Z,10.23
2019-03-30T03:10:48.005Z,11.13
2019-03-30T03:13:18.329Z,10.27
2019-03-30T03:15:46.872Z,10.50
2019-03-30T03:18:15.395Z,9.73
2019-03-30T03:20:44.034Z,9.80
2019-03-30T03:23:12.580Z,10.70
2019-03-30T03:25:41.162Z,12.07
2019-03-30T03:28:09.671Z,11.67
2019-03-30T03:30:38.217Z,9.73
2019-03-30T03:33:06.708Z,10.30
2019-03-30T03:35:35.225Z,10.00
2019-03-30T03:38:03.796Z,9.93
2019-03-30T03:40:34.976Z,10.00
2019-03-30T03:43:03.488Z,9.77
2019-03-30T03:45:32.018Z,10.73
2019-03-30T03:48:02.787Z,11.50
2019-03-30T03:50:40.890Z,10.13
2019-03-30T03:53:10.460Z,9.97
2019-03-30T03:55:40.359Z,10.30
2019-03-30T03:58:08.878Z,9.60
2019-03-30T04:00:37.468Z,9.67
2019-03-30T04:03:06.089Z,9.67
2019-03-30T04:05:34.759Z,9.93
2019-03-30T04:08:03.975Z,9.87
2019-03-30T04:10:33.577Z,10.40
2019-03-30T04:13:06.933Z,9.30
2019-03-30T04:15:33.563Z,9.93
2019-03-30T04:18:01.945Z,11.63
2019-03-30T04:20:30.425Z,9.97
2019-03-30T04:22:58.845Z,10.47
2019-03-30T04:25:27.205Z,11.93
2019-03-30T04:27:55.894Z,11.70
2019-03-30T04:30:24.344Z,9.70
2019-03-30T04:32:52.806Z,9.57
2019-03-30T04:35:21.252Z,9.00
2019-03-30T04:37:49.810Z,9.43
2019-03-30T04:40:18.135Z,9.47
2019-03-30T04:42:46.554Z,9.13
2019-03-30T04:45:14.925Z,9.90
2019-03-30T04:47:43.721Z,10.20
2019-03-30T04:50:12.242Z,13.43
2019-03-30T04:52:40.779Z,11.47
2019-03-30T04:55:09.444Z,10.13
2019-03-30T04:57:37.789Z,9.80
2019-03-30T05:00:06.889Z,9.50
2019-03-30T05:02:35.302Z,11.43
2019-03-30T05:05:03.816Z,10.80
2019-03-30T05:07:32.234Z,10.97
2019-03-30T05:10:01.030Z,10.83
2019-03-30T05:12:29.400Z,10.80
2019-03-30T05:14:57.835Z,13.47
2019-03-30T05:17:26.251Z,11.13
2019-03-30T05:19:54.854Z,10.50
2019-03-30T05:22:23.444Z,11.00
2019-03-30T05:24:51.821Z,12.37
2019-03-30T05:27:20.222Z,11.33
2019-03-30T05:29:48.588Z,11.70
2019-03-30T05:32:16.923Z,14.27
2019-03-30T05:34:45.395Z,17.00
2019-03-30T05:37:13.865Z,11.70
2019-03-30T05:39:42.277Z,12.67
2019-03-30T05:42:10.914Z,12.43
2019-03-30T05:44:39.446Z,12.07
2019-03-30T05:47:07.956Z,12.50
2019-03-30T05:49:36.451Z,12.10
2019-03-30T05:52:04.899Z,11.53
2019-03-30T05:54:33.347Z,11.57
2019-03-30T05:57:01.879Z,12.23
2019-03-30T05:59:30.410Z,10.77
2019-03-30T06:01:58.906Z,12.60
2019-03-30T06:04:27.344Z,13.33
2019-03-30T06:06:55.782Z,15.30
2019-03-30T06:09:24.116Z,12.33
2019-03-30T06:11:52.617Z,12.47
2019-03-30T06:14:21.095Z,11.77
2019-03-30T06:16:49.528Z,13.83
2019-03-30T06:19:18.021Z,14.53
2019-03-30T06:21:46.586Z,12.73
2019-03-30T06:24:14.989Z,13.77
2019-03-30T06:26:43.536Z,12.97
2019-03-30T06:29:12.278Z,11.40
2019-03-30T06:31:40.877Z,13.80
2019-03-30T06:34:09.330Z,10.93
2019-03-30T06:36:37.832Z,10.50
2019-03-30T06:39:06.614Z,12.13
2019-03-30T06:41:35.051Z,10.80
2019-03-30T06:44:03.623Z,10.13
2019-03-30T06:46:32.123Z,10.90
2019-03-30T06:49:00.817Z,11.07
2019-03-30T06:51:29.224Z,10.60
2019-03-30T06:53:57.740Z,10.30
2019-03-30T06:56:26.157Z,10.10
2019-03-30T06:58:54.552Z,9.87
2019-03-30T07:01:23.253Z,10.27
2019-03-30T07:03:51.713Z,10.07
2019-03-30T07:06:20.173Z,10.37
2019-03-30T07:08:49.968Z,10.10
2019-03-30T07:11:21.421Z,10.00
2019-03-30T07:13:49.963Z,10.53
2019-03-30T07:16:18.398Z,9.40
2019-03-30T07:18:46.798Z,9.60
2019-03-30T07:21:15.360Z,10.00
2019-03-30T07:23:43.785Z,11.50
2019-03-30T07:26:12.292Z,10.53
2019-03-30T07:28:40.683Z,10.73
2019-03-30T07:31:09.111Z,10.50
2019-03-30T07:33:37.635Z,10.60
2019-03-30T07:36:06.301Z,10.20
2019-03-30T07:38:34.707Z,11.23
2019-03-30T07:41:03.766Z,10.10
2019-03-30T07:43:32.194Z,11.13
2019-03-30T07:46:00.663Z,10.63
2019-03-30T07:48:29.124Z,11.10
2019-03-30T07:50:57.538Z,10.33
2019-03-30T07:53:27.063Z,12.00
2019-03-30T07:56:07.702Z,11.50
2019-03-30T07:58:26.396Z,11.20
2019-03-30T08:00:54.965Z,11.13
2019-03-30T08:03:32.764Z,10.40
2019-03-30T08:06:02.529Z,10.43
2019-03-30T08:08:30.991Z,9.63
2019-03-30T08:11:01.702Z,9.07
2019-03-30T08:13:41.138Z,8.97
2019-03-30T08:16:09.586Z,9.63
2019-03-30T08:18:38.253Z,9.23
2019-03-30T08:21:06.718Z,9.30
2019-03-30T08:23:40.462Z,9.53
2019-03-30T08:26:05.809Z,11.37
2019-03-30T08:28:36.461Z,10.63
2019-03-30T08:31:06.171Z,10.77
2019-03-30T08:33:34.594Z,9.37
2019-03-30T08:36:02.974Z,8.97
2019-03-30T08:38:31.460Z,10.30
2019-03-30T08:41:00.019Z,10.17
2019-03-30T08:43:28.443Z,11.67
2019-03-30T08:45:56.947Z,10.07
2019-03-30T08:48:28.398Z,10.53
2019-03-30T08:50:56.835Z,10.13
2019-03-30T08:53:26.442Z,9.87
2019-03-30T08:55:54.806Z,9.80
2019-03-30T08:58:23.705Z,9.63
2019-03-30T09:00:52.137Z,9.27
2019-03-30T09:03:20.683Z,9.90
2019-03-30T09:05:49.638Z,8.80
2019-03-30T09:08:18.114Z,9.33
2019-03-30T09:10:48.312Z,12.07
2019-03-30T09:13:16.782Z,8.50
2019-03-30T09:15:45.193Z,9.40
2019-03-30T09:18:13.632Z,9.73
2019-03-30T09:20:42.062Z,10.07
2019-03-30T09:23:13.382Z,9.23
2019-03-30T09:25:42.094Z,10.03
2019-03-30T09:28:13.897Z,9.50
2019-03-30T09:30:42.365Z,9.50
2019-03-30T09:33:10.809Z,9.10
2019-03-30T09:35:39.302Z,9.47
2019-03-30T09:38:07.674Z,9.00
2019-03-30T09:40:39.088Z,9.13
2019-03-30T09:43:07.681Z,9.47
2019-03-30T09:45:37.697Z,8.60
2019-03-30T09:48:06.113Z,9.37
2019-03-30T09:50:34.509Z,9.30
2019-03-30T09:53:03.267Z,9.10
2019-03-30T09:55:31.750Z,10.80
2019-03-30T09:58:00.245Z,10.37
2019-03-30T10:00:28.778Z,10.47
2019-03-30T10:03:00.275Z,9.73
2019-03-30T10:05:34.553Z,10.73
2019-03-30T10:08:03.011Z,10.07
2019-03-30T10:10:31.527Z,9.60
2019-03-30T10:13:00.239Z,10.60
2019-03-30T10:15:31.208Z,9.70
2019-03-30T10:17:59.547Z,10.90
2019-03-30T10:20:28.003Z,11.17
2019-03-30T10:22:56.499Z,11.80
2019-03-30T10:25:24.873Z,10.50
2019-03-30T10:27:53.378Z,10.70
2019-03-30T10:30:24.488Z,10.80
2019-03-30T10:32:54.232Z,11.50
2019-03-30T10:35:26.850Z,10.77
2019-03-30T10:37:55.493Z,11.37
2019-03-30T10:40:23.973Z,10.40
2019-03-30T10:42:52.534Z,10.83
2019-03-30T10:45:21.006Z,10.77
2019-03-30T10:47:49.527Z,10.70
2019-03-30T10:50:17.914Z,12.10
2019-03-30T10:52:46.341Z,12.00
2019-03-30T10:55:21.231Z,10.30
2019-03-30T10:57:52.576Z,11.63
2019-03-30T11:00:39.074Z,12.73
2019-03-30T11:03:07.598Z,11.73
2019-03-30T11:05:41.898Z,10.53
2019-03-30T11:08:13.002Z,11.13
2019-03-30T11:10:41.460Z,11.70
2019-03-30T11:13:10.069Z,12.10
2019-03-30T11:15:38.539Z,14.50
2019-03-30T11:18:09.676Z,12.23
2019-03-30T11:20:43.301Z,14.37
2019-03-30T11:23:14.263Z,12.40
2019-03-30T11:25:42.777Z,12.57
2019-03-30T11:28:11.137Z,12.93
2019-03-30T11:30:52.412Z,12.03
2019-03-30T11:33:23.274Z,14.00
2019-03-30T11:35:52.008Z,12.17
2019-03-30T11:38:20.587Z,12.97
2019-03-30T11:40:49.079Z,14.20
2019-03-30T11:43:18.024Z,13.30
2019-03-30T11:45:46.414Z,13.50
2019-03-30T11:48:15.542Z,16.80
2019-03-30T11:50:45.390Z,13.00
2019-03-30T11:53:13.732Z,16.10
2019-03-30T11:55:45.626Z,13.37
2019-03-30T11:58:14.004Z,15.10
2019-03-30T12:00:42.375Z,12.07
2019-03-30T12:03:10.833Z,15.23
2019-03-30T12:05:39.291Z,13.30
2019-03-30T12:08:07.741Z,14.03
2019-03-30T12:10:37.723Z,14.80
2019-03-30T12:13:06.188Z,12.67
2019-03-30T12:15:34.593Z,15.20
2019-03-30T12:18:03.075Z,11.67
2019-03-30T12:20:33.053Z,10.07
2019-03-30T12:23:03.558Z,15.00
2019-03-30T12:25:35.853Z,10.13
2019-03-30T12:28:02.270Z,12.00
2019-03-30T12:30:31.725Z,12.30
2019-03-30T12:33:00.059Z,13.50
2019-03-30T12:35:30.300Z,11.80
2019-03-30T12:37:59.051Z,13.23
2019-03-30T12:40:30.626Z,10.80
2019-03-30T12:42:59.214Z,11.77
2019-03-30T12:45:27.886Z,14.77
2019-03-30T12:47:56.337Z,15.03
2019-03-30T12:50:25.673Z,10.23
2019-03-30T12:52:55.549Z,12.10
2019-03-30T12:55:23.967Z,10.50
2019-03-30T12:57:52.457Z,10.00
2019-03-30T13:00:21.416Z,10.50
2019-03-30T13:02:50.001Z,13.27
2019-03-30T13:05:20.359Z,10.47
2019-03-30T13:07:48.898Z,9.00
2019-03-30T13:10:19.712Z,8.20
2019-03-30T13:12:50.794Z,5.90
2019-03-30T13:15:19.136Z,5.33
2019-03-30T13:17:47.959Z,7.07
2019-03-30T13:20:16.423Z,7.93
2019-03-30T13:22:44.901Z,7.07
2019-03-30T13:25:13.455Z,6.50
2019-03-30T13:27:41.805Z,5.83
2019-03-30T13:30:11.007Z,5.10
2019-03-30T13:32:39.596Z,4.97
2019-03-30T13:35:10.533Z,4.50
2019-03-30T13:37:39.082Z,5.00
2019-03-30T13:40:07.644Z,5.47
2019-03-30T13:42:36.202Z,6.30
2019-03-30T13:45:04.921Z,6.10
2019-03-30T13:47:33.435Z,6.07
2019-03-30T13:50:02.091Z,5.40
2019-03-30T13:52:30.657Z,4.00
2019-03-30T13:54:59.441Z,4.70
2019-03-30T13:57:27.996Z,4.93
2019-03-30T13:59:57.773Z,4.30
2019-03-30T14:02:26.216Z,4.50
2019-03-30T14:04:54.774Z,6.37
2019-03-30T14:07:23.091Z,5.23
2019-03-30T14:09:54.352Z,4.33
2019-03-30T14:12:22.897Z,5.90
2019-03-30T14:14:51.251Z,4.50
2019-03-30T14:17:20.287Z,5.77
2019-03-30T14:19:48.929Z,4.70
2019-03-30T14:22:17.419Z,5.67
2019-03-30T14:24:46.011Z,7.20
2019-03-30T14:27:14.432Z,5.40
2019-03-30T14:29:42.985Z,4.90
2019-03-30T14:32:11.801Z,5.50
2019-03-30T14:34:40.392Z,5.23
2019-03-30T14:37:09.068Z,5.47
2019-03-30T14:39:37.611Z,6.27
2019-03-30T14:42:06.491Z,5.30
2019-03-30T14:44:35.203Z,6.17
2019-03-30T14:47:03.946Z,5.87
2019-03-30T14:49:32.383Z,5.50
2019-03-30T14:52:00.986Z,5.50
2019-03-30T14:54:29.558Z,5.37
2019-03-30T14:56:58.168Z,5.80
2019-03-30T14:59:26.656Z,6.63
2019-03-30T15:01:55.382Z,5.10
2019-03-30T15:04:23.782Z,4.13
2019-03-30T15:06:52.331Z,4.70
2019-03-30T15:09:20.826Z,8.43
2019-03-30T15:11:49.456Z,4.60
2019-03-30T15:14:18.190Z,7.13
2019-03-30T15:16:46.600Z,4.77
2019-03-30T15:19:18.450Z,6.03
2019-03-30T15:21:46.941Z,6.10
2019-03-30T15:24:15.434Z,4.60
2019-03-30T15:26:43.908Z,5.23
2019-03-30T15:29:12.308Z,5.30
2019-03-30T15:31:41.148Z,5.60
2019-03-30T15:34:09.792Z,7.47
2019-03-30T15:36:38.283Z,5.73
2019-03-30T15:39:07.247Z,4.40
2019-03-30T15:41:35.996Z,6.43
2019-03-30T15:44:07.180Z,16.93
2019-03-30T15:46:38.795Z,6.03
2019-03-30T15:49:09.664Z,7.77
2019-03-30T15:51:37.739Z,8.10
2019-03-30T15:54:06.136Z,6.50
2019-03-30T15:56:34.528Z,7.30
2019-03-30T15:59:03.152Z,6.93
2019-03-30T16:01:34.213Z,5.20
2019-03-30T16:04:02.851Z,6.33
2019-03-30T16:06:31.289Z,6.13
2019-03-30T16:08:59.768Z,7.30
2019-03-30T16:11:28.455Z,6.10
2019-03-30T16:13:56.888Z,5.97
2019-03-30T16:16:27.359Z,6.33
2019-03-30T16:18:55.421Z,7.77
2019-03-30T16:21:25.097Z,5.90
2019-03-30T16:23:54.688Z,6.03
2019-03-30T16:26:23.148Z,6.20
2019-03-30T16:28:53.242Z,5.83
2019-03-30T16:31:21.815Z,6.10
2019-03-30T16:33:50.212Z,9.00
2019-03-30T16:36:18.597Z,7.50
2019-03-30T16:38:47.068Z,6.07
2019-03-30T16:41:15.841Z,5.97
2019-03-30T16:43:44.485Z,5.17
2019-03-30T16:46:12.889Z,6.30
2019-03-30T16:48:41.374Z,6.30
2019-03-30T16:51:09.824Z,6.70
2019-03-30T16:53:38.400Z,5.73
2019-03-30T16:56:06.740Z,6.57
2019-03-30T16:58:35.208Z,6.57
2019-03-30T17:01:03.708Z,6.13
2019-03-30T17:03:32.110Z,5.03
2019-03-30T17:06:00.606Z,5.33
2019-03-30T17:08:29.634Z,5.60
2019-03-30T17:10:58.466Z,5.90
2019-03-30T17:13:27.206Z,5.70
2019-03-30T17:15:58.558Z,5.33
2019-03-30T17:18:26.271Z,5.40
2019-03-30T17:20:55.460Z,4.57
2019-03-30T17:23:24.074Z,8.60
2019-03-30T17:25:52.929Z,5.13
2019-03-30T17:28:21.926Z,4.73
2019-03-30T17:30:50.369Z,4.83
2019-03-30T17:33:18.788Z,5.23
2019-03-30T17:35:47.430Z,5.70
2019-03-30T17:38:16.124Z,5.37
2019-03-30T17:40:44.514Z,6.47
2019-03-30T17:43:13.054Z,7.30
2019-03-30T17:45:41.625Z,5.67
2019-03-30T17:48:09.988Z,4.80
2019-03-30T17:50:38.568Z,4.93
2019-03-30T17:53:07.336Z,5.47
2019-03-30T17:55:35.844Z,5.00
2019-03-30T17:58:12.799Z,4.90
2019-03-30T18:00:34.660Z,5.50
2019-03-30T18:03:03.282Z,5.47
2019-03-30T18:05:33.361Z,6.00
2019-03-30T18:08:02.215Z,6.70
2019-03-30T18:10:34.169Z,6.40
2019-03-30T18:13:02.849Z,5.57
2019-03-30T18:15:34.484Z,6.43
2019-03-30T18:18:03.441Z,6.87
2019-03-30T18:20:33.575Z,6.90
2019-03-30T18:23:02.184Z,6.37
2019-03-30T18:25:30.591Z,5.70
2019-03-30T18:27:59.425Z,6.90
2019-03-30T18:30:34.803Z,8.00
2019-03-30T18:33:06.947Z,7.10
2019-03-30T18:35:43.264Z,7.90
2019-03-30T18:38:13.143Z,8.57
2019-03-30T18:40:41.884Z,8.50
2019-03-30T18:43:10.467Z,11.43
2019-03-30T18:45:39.235Z,7.40
2019-03-30T18:48:11.798Z,8.80
2019-03-30T18:50:40.678Z,8.80
2019-03-30T18:53:09.449Z,9.83
2019-03-30T18:55:37.882Z,9.23
2019-03-30T18:58:06.274Z,10.90
2019-03-30T19:00:34.744Z,9.87
2019-03-30T19:03:04.440Z,9.27
2019-03-30T19:05:32.965Z,10.60
2019-03-30T19:08:01.456Z,10.13
2019-03-30T19:10:30.335Z,11.37
2019-03-30T19:12:58.739Z,13.67
2019-03-30T19:15:27.956Z,16.67
2019-03-30T19:17:56.527Z,18.23
2019-03-30T19:20:25.162Z,27.10
2019-03-30T19:23:13.425Z,25.10
2019-03-30T19:25:39.516Z,19.07
2019-03-30T19:28:08.160Z,17.20
2019-03-30T19:30:44.538Z,16.13
2019-03-30T19:33:26.181Z,16.07
2019-03-30T19:36:01.909Z,13.80
2019-03-30T19:38:46.572Z,16.00
2019-03-30T19:41:17.735Z,18.67
2019-03-30T19:43:53.739Z,15.83
2019-03-30T19:46:42.822Z,20.30
2019-03-30T19:49:21.018Z,22.30
2019-03-30T19:52:12.144Z,25.07
2019-03-30T19:54:42.072Z,20.43
2019-03-30T19:57:10.642Z,16.83
2019-03-30T19:59:39.340Z,17.00
2019-03-30T20:02:07.879Z,15.07
2019-03-30T20:04:39.548Z,12.90
2019-03-30T20:07:08.582Z,9.83
2019-03-30T20:09:37.043Z,10.97
2019-03-30T20:12:05.507Z,13.03
2019-03-30T20:14:35.832Z,11.40
2019-03-30T20:17:18.517Z,11.93
2019-03-30T20:19:46.583Z,12.60
2019-03-30T20:22:18.280Z,11.40
2019-03-30T20:24:49.472Z,12.33
2019-03-30T20:27:22.504Z,13.67
2019-03-30T20:29:51.166Z,14.40
2019-03-30T20:32:19.742Z,14.83
2019-03-30T20:34:48.225Z,15.50
2019-03-30T20:37:16.954Z,16.10
2019-03-30T20:39:45.546Z,14.00
2019-03-30T20:42:14.099Z,15.77
2019-03-30T20:44:42.726Z,14.67
2019-03-30T20:47:11.256Z,20.77
2019-03-30T20:49:39.933Z,14.13
2019-03-30T20:52:09.077Z,14.23
2019-03-30T20:54:37.566Z,16.90
2019-03-30T20:57:06.077Z,12.60
2019-03-30T20:59:40.256Z,17.30
2019-03-30T21:02:04.608Z,13.47
2019-03-30T21:04:33.036Z,13.50
2019-03-30T21:07:01.550Z,13.10
2019-03-30T21:09:30.684Z,13.47
2019-03-30T21:11:59.137Z,14.07
2019-03-30T21:14:27.941Z,15.30
2019-03-30T21:16:56.374Z,16.23
2019-03-30T21:19:30.832Z,14.63
2019-03-30T21:22:05.366Z,14.20
2019-03-30T21:24:37.023Z,15.07
2019-03-30T21:27:05.614Z,15.80
2019-03-30T21:29:34.264Z,17.70
2019-03-30T21:32:03.198Z,15.57
2019-03-30T21:34:31.807Z,15.07
2019-03-30T21:37:00.326Z,17.57
2019-03-30T21:39:30.826Z,15.13
2019-03-30T21:42:03.992Z,14.47
2019-03-30T21:44:37.041Z,13.70
2019-03-30T21:47:13.749Z,14.33
2019-03-30T21:49:45.187Z,14.53
2019-03-30T21:52:14.026Z,11.80
2019-03-30T21:54:50.722Z,11.67
2019-03-30T21:57:23.803Z,12.17
2019-03-30T22:00:11.035Z,12.77
2019-03-30T22:02:55.351Z,11.13
2019-03-30T22:05:49.306Z,12.07
2019-03-30T22:08:29.827Z,13.00
2019-03-30T22:11:01.369Z,12.93
2019-03-30T22:13:33.519Z,11.03
2019-03-30T22:16:26.976Z,12.20
2019-03-30T22:19:15.307Z,11.17
2019-03-30T22:21:52.617Z,14.30
2019-03-30T22:24:21.069Z,11.60
2019-03-30T22:26:49.671Z,10.87
2019-03-30T22:29:18.057Z,13.60
2019-03-30T22:31:46.682Z,11.60
2019-03-30T22:34:15.603Z,9.87
2019-03-30T22:36:49.011Z,10.57
2019-03-30T22:39:25.873Z,10.90
2019-03-30T22:41:58.501Z,10.60
2019-03-30T22:44:44.751Z,12.63
2019-03-30T22:47:19.203Z,10.20
2019-03-30T22:49:48.346Z,10.70
2019-03-30T22:52:20.191Z,10.77
2019-03-30T22:54:47.141Z,10.40
2019-03-30T22:57:20.231Z,10.97
2019-03-30T22:59:48.636Z,9.90
2019-03-30T23:02:23.861Z,9.47
2019-03-30T23:04:52.494Z,10.10
2019-03-30T23:07:21.253Z,9.93
2019-03-30T23:09:49.708Z,9.60
2019-03-30T23:12:18.140Z,13.87
2019-03-30T23:14:47.808Z,11.83
2019-03-30T23:17:17.539Z,11.97
2019-03-30T23:19:45.948Z,12.30
2019-03-30T23:22:14.481Z,10.83
2019-03-30T23:24:42.930Z,10.57
2019-03-30T23:27:11.326Z,17.23
2019-03-30T23:29:39.980Z,13.20
2019-03-30T23:32:08.476Z,13.67
2019-03-30T23:34:36.882Z,15.83
2019-03-30T23:37:05.283Z,16.07
2019-03-30T23:39:33.807Z,14.90
2019-03-30T23:42:02.225Z,15.60
2019-03-30T23:44:34.087Z,15.30
2019-03-30T23:47:02.593Z,15.63
2019-03-30T23:49:31.000Z,17.40
2019-03-30T23:51:59.454Z,15.03
2019-03-30T23:54:29.141Z,12.83
2019-03-30T23:56:57.543Z,14.60
2019-03-30T23:59:27.050Z,14.23
